Time;durP1;ratioP1;P1;durP2;ratioP2;P2;SDS_P1;SDS_P2;PMS_P1;PMS_P2;Temp;Humidity;BMP_temperature;BMP_pressure;BME280_temperature;BME280_humidity;BME280_pressure;Samples;Min_cycle;Max_cycle;Signal;HPM_P1;HPM_P2
2023/11/24 00:01:50;;;;;;;14.95;5.03;;;12.00;95.00;;;;;;5019209;28;20501;-76
2023/11/24 00:04:16;;;;;;;16.58;3.63;;;11.90;95.10;;;;;;5020383;28;20061;-78
2023/11/24 00:06:42;;;;;;;12.07;3.88;;;11.90;95.10;;;;;;5019953;28;20445;-76
2023/11/24 00:09:08;;;;;;;10.93;3.42;;;11.90;95.00;;;;;;5020336;28;20040;-76
2023/11/24 00:11:34;;;;;;;15.07;3.83;;;11.80;95.00;;;;;;5016123;28;20571;-78
2023/11/24 00:14:00;;;;;;;14.18;3.85;;;11.80;94.60;;;;;;5022382;28;20129;-78
2023/11/24 00:16:25;;;;;;;12.20;3.35;;;11.80;93.90;;;;;;5018294;28;20341;-76
2023/11/24 00:18:52;;;;;;;14.30;3.47;;;11.70;93.20;;;;;;5024490;28;20363;-78
2023/11/24 00:21:17;;;;;;;13.77;3.20;;;11.70;92.60;;;;;;5018537;28;20122;-77
2023/11/24 00:23:45;;;;;;;19.95;3.80;;;11.70;91.90;;;;;;5021709;28;20562;-77
2023/11/24 00:26:11;;;;;;;11.23;3.35;;;11.80;91.20;;;;;;5021945;28;20068;-77
2023/11/24 00:28:39;;;;;;;19.70;3.42;;;11.80;90.60;;;;;;5021098;28;20114;-77
2023/11/24 00:31:08;;;;;;;15.20;3.38;;;11.80;89.20;;;;;;5016386;28;20152;-77
2023/11/24 00:33:34;;;;;;;12.73;2.95;;;11.80;88.20;;;;;;5022766;28;20447;-77
2023/11/24 00:36:01;;;;;;;14.82;3.33;;;11.80;87.00;;;;;;5013864;28;20152;-76
2023/11/24 00:38:27;;;;;;;16.60;3.65;;;11.80;86.90;;;;;;5015058;28;20418;-76
2023/11/24 00:40:54;;;;;;;21.38;4.15;;;11.80;86.10;;;;;;5019281;28;20052;-76
2023/11/24 00:43:22;;;;;;;16.27;3.15;;;11.80;85.20;;;;;;5021362;28;20052;-75
2023/11/24 00:45:48;;;;;;;16.48;3.67;;;11.80;84.80;;;;;;5020181;28;20037;-76
2023/11/24 00:48:14;;;;;;;20.33;3.42;;;11.80;83.20;;;;;;5021382;28;20041;-76
2023/11/24 00:50:39;;;;;;;19.45;3.80;;;11.70;81.20;;;;;;5019336;28;20206;-76
2023/11/24 00:53:07;;;;;;;19.25;4.03;;;11.70;81.70;;;;;;5020400;28;20143;-77
2023/11/24 00:55:33;;;;;;;16.30;3.95;;;11.60;81.20;;;;;;5015471;28;20477;-76
2023/11/24 00:57:59;;;;;;;25.42;4.50;;;11.60;80.80;;;;;;5018765;28;20383;-76
2023/11/24 01:00:25;;;;;;;12.45;3.08;;;11.50;79.40;;;;;;5021117;28;20394;-76
2023/11/24 01:02:51;;;;;;;19.70;4.05;;;11.50;79.20;;;;;;5015769;28;20045;-76
2023/11/24 01:05:19;;;;;;;15.85;4.00;;;11.50;79.60;;;;;;5015119;28;20050;-76
2023/11/24 01:07:46;;;;;;;19.50;4.63;;;11.40;79.80;;;;;;5020132;28;20037;-76
2023/11/24 01:10:13;;;;;;;20.90;4.20;;;11.40;78.30;;;;;;5017865;28;20548;-76
2023/11/24 01:12:38;;;;;;;15.13;3.78;;;11.30;78.10;;;;;;5020598;28;20160;-77
2023/11/24 01:15:06;;;;;;;22.55;4.43;;;11.30;78.60;;;;;;5017386;28;20167;-76
2023/11/24 01:17:32;;;;;;;23.88;4.85;;;11.20;79.50;;;;;;5021649;28;20038;-76
2023/11/24 01:19:58;;;;;;;23.08;4.07;;;11.10;79.50;;;;;;5022980;28;20127;-76
2023/11/24 01:22:24;;;;;;;19.27;4.57;;;11.10;79.20;;;;;;5020628;28;20025;-76
2023/11/24 01:24:51;;;;;;;19.13;4.85;;;11.00;79.40;;;;;;5020405;28;20041;-77
2023/11/24 01:27:18;;;;;;;19.65;4.43;;;10.90;79.50;;;;;;5021054;28;20041;-76
2023/11/24 01:29:44;;;;;;;22.10;4.53;;;10.80;79.50;;;;;;5019450;28;20049;-77
2023/11/24 01:32:10;;;;;;;23.17;5.03;;;10.70;78.90;;;;;;5020711;28;20674;-76
2023/11/24 01:34:35;;;;;;;21.25;4.55;;;10.60;78.90;;;;;;5016523;28;20045;-76
2023/11/24 01:37:04;;;;;;;23.80;5.03;;;10.60;79.30;;;;;;5020654;28;20033;-77
2023/11/24 01:39:29;;;;;;;18.38;4.72;;;10.50;79.10;;;;;;5016790;28;20037;-77
2023/11/24 01:41:56;;;;;;;19.42;4.57;;;10.40;79.40;;;;;;5018835;28;20034;-77
2023/11/24 01:44:22;;;;;;;20.95;4.38;;;10.40;79.30;;;;;;5020618;28;20241;-77
2023/11/24 01:46:48;;;;;;;17.95;4.43;;;10.30;79.50;;;;;;5015348;28;20041;-77
2023/11/24 01:49:15;;;;;;;22.27;4.53;;;10.30;79.30;;;;;;5022825;28;20171;-77
2023/11/24 01:51:42;;;;;;;21.13;4.03;;;10.20;80.00;;;;;;5018160;28;20077;-77
2023/11/24 01:54:08;;;;;;;16.85;3.78;;;10.10;80.00;;;;;;5022164;28;20030;-77
2023/11/24 01:56:35;;;;;;;21.75;4.25;;;10.10;80.30;;;;;;5019498;28;20037;-77
2023/11/24 01:59:02;;;;;;;20.33;4.20;;;10.00;80.50;;;;;;5022490;28;20545;-77
2023/11/24 02:01:31;;;;;;;17.13;3.38;;;10.00;80.10;;;;;;5020087;28;20394;-77
2023/11/24 02:03:56;;;;;;;22.35;4.25;;;10.00;80.10;;;;;;5025143;28;20072;-76
2023/11/24 02:06:23;;;;;;;17.75;3.95;;;9.90;80.30;;;;;;5022244;28;20045;-77
2023/11/24 02:08:49;;;;;;;17.70;4.32;;;9.90;80.40;;;;;;5025527;28;20025;-77
2023/11/24 02:11:15;;;;;;;21.75;3.90;;;9.80;80.20;;;;;;5024303;28;20030;-77
2023/11/24 02:13:41;;;;;;;18.98;3.75;;;9.90;80.00;;;;;;5024111;28;20029;-77
2023/11/24 02:16:08;;;;;;;19.73;4.47;;;9.80;80.20;;;;;;5020192;28;20129;-77
2023/11/24 02:18:33;;;;;;;18.50;4.30;;;9.80;80.30;;;;;;5023246;28;20230;-77
2023/11/24 02:21:00;;;;;;;17.70;3.58;;;9.90;80.40;;;;;;5022240;28;20149;-77
2023/11/24 02:23:27;;;;;;;18.95;3.97;;;9.80;80.60;;;;;;5024107;28;20142;-77
2023/11/24 02:25:52;;;;;;;17.00;4.32;;;9.80;80.80;;;;;;5021337;28;20568;-77
2023/11/24 02:28:18;;;;;;;16.40;3.92;;;9.70;80.90;;;;;;5023170;28;20049;-77
2023/11/24 02:30:44;;;;;;;17.08;3.80;;;9.70;81.30;;;;;;5020463;28;20042;-77
2023/11/24 02:33:10;;;;;;;20.05;4.78;;;9.70;81.40;;;;;;5023236;28;20042;-78
2023/11/24 02:35:37;;;;;;;19.95;4.68;;;9.70;81.50;;;;;;5021843;28;20042;-77
2023/11/24 02:38:04;;;;;;;20.50;4.22;;;9.60;81.90;;;;;;5024299;28;20491;-78
2023/11/24 02:40:29;;;;;;;16.27;4.38;;;9.60;82.00;;;;;;5024087;28;20045;-77
2023/11/24 02:42:55;;;;;;;21.45;4.93;;;9.60;82.10;;;;;;5021152;28;20107;-77
2023/11/24 02:45:21;;;;;;;20.40;4.47;;;9.50;82.40;;;;;;5020239;28;20813;-77
2023/11/24 02:47:48;;;;;;;19.08;4.32;;;9.50;82.50;;;;;;5022802;28;20116;-77
2023/11/24 02:50:14;;;;;;;20.85;5.03;;;9.40;82.50;;;;;;5027251;28;20049;-77
2023/11/24 02:52:39;;;;;;;20.77;4.38;;;9.50;82.30;;;;;;5023881;28;20033;-76
2023/11/24 02:55:06;;;;;;;23.88;4.63;;;9.50;81.80;;;;;;5023707;28;20033;-77
2023/11/24 02:57:32;;;;;;;17.75;4.88;;;9.50;81.70;;;;;;5015827;28;20124;-77
2023/11/24 02:59:58;;;;;;;21.13;5.05;;;9.50;81.60;;;;;;5020738;28;20389;-77
2023/11/24 03:02:23;;;;;;;18.80;3.92;;;9.50;81.50;;;;;;5020908;28;20037;-78
2023/11/24 03:04:49;;;;;;;23.13;5.00;;;9.50;81.80;;;;;;5018476;28;20151;-78
2023/11/24 03:07:15;;;;;;;16.30;4.38;;;9.40;81.80;;;;;;5019326;28;20463;-77
2023/11/24 03:09:41;;;;;;;19.60;3.88;;;9.40;81.90;;;;;;5018622;28;20022;-76
2023/11/24 03:12:07;;;;;;;17.73;4.95;;;9.50;81.50;;;;;;5017904;28;20443;-77
2023/11/24 03:14:33;;;;;;;17.63;3.60;;;9.40;81.50;;;;;;5017715;28;20033;-76
2023/11/24 03:16:59;;;;;;;22.40;4.70;;;9.40;82.00;;;;;;5021577;28;20033;-76
2023/11/24 03:19:25;;;;;;;19.92;4.10;;;9.40;82.00;;;;;;5015398;28;20024;-76
2023/11/24 03:21:51;;;;;;;21.38;4.47;;;9.30;82.10;;;;;;5019455;28;20069;-76
2023/11/24 03:24:16;;;;;;;17.67;3.67;;;9.30;82.40;;;;;;5020160;28;20034;-77
2023/11/24 03:26:42;;;;;;;17.85;4.45;;;9.30;82.70;;;;;;5022366;28;20395;-76
2023/11/24 03:29:08;;;;;;;16.25;3.90;;;9.30;82.90;;;;;;5017395;28;20514;-76
2023/11/24 03:31:33;;;;;;;30.45;5.72;;;9.20;83.00;;;;;;5017415;28;20056;-76
2023/11/24 03:34:02;;;;;;;22.58;4.65;;;9.20;83.00;;;;;;5020214;28;20029;-76
2023/11/24 03:36:28;;;;;;;18.95;4.80;;;9.30;83.00;;;;;;5038642;28;20083;-76
2023/11/24 03:38:53;;;;;;;21.05;4.60;;;9.30;82.80;;;;;;5019752;28;20112;-76
2023/11/24 03:41:19;;;;;;;23.58;4.70;;;9.30;82.80;;;;;;5020094;28;20502;-77
2023/11/24 03:43:45;;;;;;;20.98;4.50;;;9.30;82.80;;;;;;5022711;28;20330;-76
2023/11/24 03:46:11;;;;;;;21.55;4.65;;;9.20;82.80;;;;;;5022823;28;20048;-77
2023/11/24 03:48:37;;;;;;;21.58;4.65;;;9.20;82.80;;;;;;5021161;28;20036;-76
2023/11/24 03:51:04;;;;;;;18.23;3.53;;;9.20;83.00;;;;;;5020801;28;20029;-76
2023/11/24 03:53:31;;;;;;;14.68;4.00;;;9.10;83.00;;;;;;5020348;28;20053;-75
2023/11/24 03:55:56;;;;;;;19.90;4.20;;;9.10;83.30;;;;;;5021228;28;20048;-76
2023/11/24 03:58:22;;;;;;;18.88;4.82;;;9.10;83.30;;;;;;5018703;28;20034;-76
2023/11/24 04:00:48;;;;;;;27.40;5.60;;;9.10;83.50;;;;;;5025057;28;20044;-78
2023/11/24 04:03:14;;;;;;;16.77;4.30;;;9.00;83.70;;;;;;5021134;28;20137;-77
2023/11/24 04:05:40;;;;;;;21.27;4.32;;;8.90;83.80;;;;;;5019855;28;20116;-78
2023/11/24 04:08:06;;;;;;;17.98;4.03;;;8.90;83.70;;;;;;5019677;28;20124;-78
2023/11/24 04:10:31;;;;;;;22.63;5.07;;;8.90;83.70;;;;;;5018735;28;20493;-78
2023/11/24 04:12:57;;;;;;;23.35;5.25;;;8.90;83.70;;;;;;5020451;28;20029;-78
2023/11/24 04:15:23;;;;;;;19.30;4.82;;;8.90;83.70;;;;;;5019013;28;20736;-78
2023/11/24 04:17:48;;;;;;;25.48;6.07;;;8.90;83.60;;;;;;5017441;28;20412;-78
2023/11/24 04:20:14;;;;;;;23.35;5.18;;;8.90;83.70;;;;;;5039169;28;20040;-76
2023/11/24 04:22:40;;;;;;;21.98;5.03;;;8.80;83.90;;;;;;5046231;28;20158;-76
2023/11/24 04:25:06;;;;;;;17.13;3.95;;;8.90;84.00;;;;;;5043539;28;20051;-76
2023/11/24 04:27:32;;;;;;;18.70;4.80;;;8.80;84.20;;;;;;5027798;28;20043;-77
2023/11/24 04:29:58;;;;;;;25.95;5.50;;;8.70;84.70;;;;;;5027989;28;20136;-77
2023/11/24 04:32:23;;;;;;;20.83;4.72;;;8.70;84.90;;;;;;5022411;28;20064;-77
2023/11/24 04:34:49;;;;;;;20.63;4.75;;;8.60;84.90;;;;;;5024777;28;20033;-77
2023/11/24 04:37:18;;;;;;;24.60;5.03;;;8.60;85.10;;;;;;5022991;28;20458;-79
2023/11/24 04:39:44;;;;;;;22.40;4.80;;;8.60;85.10;;;;;;5024806;28;20037;-78
2023/11/24 04:42:10;;;;;;;18.60;4.72;;;8.50;85.30;;;;;;5024073;28;20131;-78
2023/11/24 04:44:36;;;;;;;13.65;3.88;;;8.50;85.50;;;;;;5027827;28;20064;-77
2023/11/24 04:47:03;;;;;;;22.92;4.93;;;8.50;85.60;;;;;;5023089;28;20127;-77
2023/11/24 04:49:29;;;;;;;18.90;4.07;;;8.40;85.60;;;;;;5026401;28;20605;-77
2023/11/24 04:51:55;;;;;;;18.95;5.18;;;8.30;85.70;;;;;;5024052;28;20029;-76
2023/11/24 04:54:21;;;;;;;20.77;4.63;;;8.30;85.90;;;;;;5027672;28;20029;-77
2023/11/24 04:56:47;;;;;;;16.75;4.43;;;8.30;85.90;;;;;;5026401;28;20295;-77
2023/11/24 04:59:13;;;;;;;17.67;4.82;;;8.20;85.80;;;;;;5026346;28;20029;-75
2023/11/24 05:01:38;;;;;;;15.95;4.28;;;8.20;85.80;;;;;;5020070;28;20740;-76
2023/11/24 05:04:05;;;;;;;24.38;4.63;;;8.20;85.60;;;;;;5024387;28;20053;-76
2023/11/24 05:06:30;;;;;;;23.85;4.22;;;8.20;85.80;;;;;;5021401;28;20033;-76
2023/11/24 05:08:56;;;;;;;17.27;4.35;;;8.20;85.90;;;;;;5021912;28;20025;-76
2023/11/24 05:11:22;;;;;;;21.05;4.20;;;8.20;85.90;;;;;;5015467;28;20614;-76
2023/11/24 05:13:49;;;;;;;21.38;4.80;;;8.20;85.80;;;;;;5023078;28;20155;-77
2023/11/24 05:16:15;;;;;;;17.45;4.10;;;8.20;85.80;;;;;;5015802;28;20041;-76
2023/11/24 05:18:40;;;;;;;16.95;4.18;;;8.20;86.00;;;;;;5018607;28;20486;-77
2023/11/24 05:21:06;;;;;;;22.85;4.28;;;8.20;86.10;;;;;;5016935;28;20056;-77
2023/11/24 05:23:33;;;;;;;22.50;4.55;;;8.20;86.10;;;;;;5020685;28;20033;-77
2023/11/24 05:25:58;;;;;;;19.35;4.88;;;8.20;86.00;;;;;;5019746;28;20501;-76
2023/11/24 05:28:24;;;;;;;23.70;4.47;;;8.20;85.80;;;;;;5020156;28;20362;-78
2023/11/24 05:30:50;;;;;;;18.10;5.15;;;8.30;85.60;;;;;;5017134;28;20046;-77
2023/11/24 05:33:15;;;;;;;15.23;3.75;;;8.20;85.70;;;;;;5019227;28;20026;-77
2023/11/24 05:35:41;;;;;;;18.27;3.72;;;8.20;85.60;;;;;;5020897;28;20049;-76
2023/11/24 05:38:08;;;;;;;20.90;3.72;;;8.20;85.60;;;;;;5024177;28;20239;-77
2023/11/24 05:40:33;;;;;;;16.52;4.18;;;8.30;85.40;;;;;;5014791;28;20073;-76
2023/11/24 05:43:00;;;;;;;17.33;4.22;;;8.20;85.30;;;;;;5013632;28;20064;-76
2023/11/24 05:45:25;;;;;;;21.48;4.68;;;8.20;85.20;;;;;;5031901;28;20056;-77
2023/11/24 05:47:51;;;;;;;22.90;3.97;;;8.30;85.20;;;;;;5015441;28;20037;-75
2023/11/24 05:50:22;;;;;;;21.50;5.13;;;8.40;84.90;;;;;;5013836;28;20049;-76
2023/11/24 05:52:48;;;;;;;18.73;3.75;;;8.40;85.00;;;;;;5013558;28;20037;-76
2023/11/24 05:55:15;;;;;;;16.60;3.95;;;8.50;84.80;;;;;;5017648;28;20040;-77
2023/11/24 05:57:41;;;;;;;19.02;4.05;;;8.50;84.80;;;;;;5021631;28;20041;-77
2023/11/24 06:00:08;;;;;;;19.10;4.18;;;8.50;84.60;;;;;;5022920;28;20046;-77
2023/11/24 06:02:34;;;;;;;14.13;3.75;;;8.60;84.10;;;;;;5022202;28;20037;-77
2023/11/24 06:05:00;;;;;;;18.65;3.88;;;8.60;84.00;;;;;;5019986;28;20735;-77
2023/11/24 06:07:26;;;;;;;18.65;4.20;;;8.60;84.00;;;;;;5016997;28;20071;-77
2023/11/24 06:09:52;;;;;;;13.43;2.92;;;8.60;83.90;;;;;;5027581;28;20105;-77
2023/11/24 06:12:18;;;;;;;17.77;4.07;;;8.60;83.90;;;;;;5018319;28;20079;-78
2023/11/24 06:14:44;;;;;;;17.00;4.15;;;8.60;83.90;;;;;;5013993;28;21137;-78
2023/11/24 06:17:09;;;;;;;18.92;4.22;;;8.60;83.80;;;;;;5014301;28;20037;-78
2023/11/24 06:19:35;;;;;;;16.98;4.15;;;8.60;84.00;;;;;;5015686;28;20026;-77
2023/11/24 06:22:02;;;;;;;20.77;4.00;;;8.60;84.00;;;;;;5014727;28;20550;-78
2023/11/24 06:24:28;;;;;;;15.98;4.10;;;8.50;84.20;;;;;;5022359;28;20017;-78
2023/11/24 06:26:53;;;;;;;15.27;3.55;;;8.50;84.30;;;;;;5014969;28;20034;-76
2023/11/24 06:29:19;;;;;;;14.02;3.90;;;8.50;83.90;;;;;;5019663;28;20486;-75
2023/11/24 06:31:44;;;;;;;14.82;3.42;;;8.50;83.60;;;;;;5022384;28;20482;-78
2023/11/24 06:34:10;;;;;;;14.65;3.60;;;8.50;82.90;;;;;;5034568;28;20060;-79
2023/11/24 06:36:36;;;;;;;17.38;3.80;;;8.50;82.50;;;;;;5019486;28;20037;-77
2023/11/24 06:39:03;;;;;;;15.65;3.70;;;8.50;81.70;;;;;;5016145;28;20052;-78
2023/11/24 06:41:29;;;;;;;20.13;3.80;;;8.60;81.50;;;;;;5021224;28;20034;-75
2023/11/24 06:43:54;;;;;;;13.05;3.35;;;8.50;81.20;;;;;;5037693;28;20044;-77
2023/11/24 06:46:22;;;;;;;17.13;4.60;;;8.50;80.60;;;;;;5021396;28;20267;-77
2023/11/24 06:48:52;;;;;;;13.43;3.50;;;8.50;80.60;;;;;;5021209;28;20029;-77
2023/11/24 06:51:19;;;;;;;16.70;3.67;;;8.50;80.60;;;;;;5018440;28;20073;-76
2023/11/24 06:53:45;;;;;;;15.05;3.83;;;8.40;80.70;;;;;;5017032;28;20026;-77
2023/11/24 06:56:11;;;;;;;15.70;3.80;;;8.40;80.70;;;;;;5021030;28;20079;-77
2023/11/24 06:58:37;;;;;;;14.82;3.95;;;8.40;80.80;;;;;;5019570;28;20040;-77
2023/11/24 07:01:04;;;;;;;15.75;2.97;;;8.30;80.80;;;;;;5019575;28;20159;-76
2023/11/24 07:03:30;;;;;;;17.25;3.75;;;8.40;80.80;;;;;;5018755;28;20025;-76
2023/11/24 07:05:56;;;;;;;14.10;3.42;;;8.30;81.10;;;;;;5019985;28;20052;-78
2023/11/24 07:08:22;;;;;;;15.50;4.15;;;8.30;81.20;;;;;;5011649;28;20030;-76
2023/11/24 07:10:47;;;;;;;14.13;3.65;;;8.30;81.00;;;;;;5021184;28;20045;-77
2023/11/24 07:13:13;;;;;;;17.95;3.78;;;8.30;81.20;;;;;;5017980;28;20124;-77
2023/11/24 07:15:39;;;;;;;18.30;4.25;;;8.30;81.30;;;;;;5022360;28;20486;-80
2023/11/24 07:18:04;;;;;;;10.93;3.75;;;8.30;81.40;;;;;;5018064;28;20439;-82
2023/11/24 07:20:30;;;;;;;15.93;4.43;;;8.20;81.50;;;;;;5013401;28;20690;-81
2023/11/24 07:22:56;;;;;;;15.25;3.85;;;8.20;81.40;;;;;;5014350;28;20119;-76
2023/11/24 07:25:21;;;;;;;13.55;3.83;;;8.20;81.20;;;;;;5023924;28;20037;-77
2023/11/24 07:27:47;;;;;;;14.15;3.17;;;8.20;81.30;;;;;;5018475;28;20498;-76
2023/11/24 07:30:13;;;;;;;14.40;3.22;;;8.20;81.60;;;;;;4979371;28;1112419;-76
2023/11/24 07:32:38;;;;;;;15.68;3.67;;;8.20;81.60;;;;;;5021528;28;20037;-76
2023/11/24 07:35:05;;;;;;;19.10;4.20;;;8.20;81.40;;;;;;5022433;28;20033;-75
2023/11/24 07:37:30;;;;;;;13.73;3.65;;;8.20;81.70;;;;;;5020435;28;20068;-78
2023/11/24 07:39:56;;;;;;;20.77;3.88;;;8.20;81.90;;;;;;5021044;28;20061;-77
2023/11/24 07:42:22;;;;;;;12.05;3.22;;;8.20;82.00;;;;;;5033310;28;20038;-73
2023/11/24 07:44:48;;;;;;;10.95;3.20;;;8.20;82.30;;;;;;5020515;28;20451;-73
2023/11/24 07:47:18;;;;;;;17.42;3.70;;;8.10;82.50;;;;;;5016161;28;20030;-73
2023/11/24 07:49:44;;;;;;;15.00;3.92;;;8.10;82.60;;;;;;5022063;28;20032;-75
2023/11/24 07:52:11;;;;;;;14.18;3.85;;;8.10;82.60;;;;;;5018379;28;20044;-75
2023/11/24 07:54:37;;;;;;;15.15;3.75;;;8.10;82.60;;;;;;5020863;28;20026;-74
2023/11/24 07:57:04;;;;;;;15.65;3.30;;;8.10;82.30;;;;;;5020635;28;20029;-77
2023/11/24 07:59:29;;;;;;;15.13;3.33;;;8.10;82.00;;;;;;5020831;28;20398;-74
2023/11/24 08:01:55;;;;;;;12.20;3.22;;;8.10;82.10;;;;;;5017823;28;20522;-73
2023/11/24 08:04:22;;;;;;;14.02;3.80;;;8.10;82.00;;;;;;5022299;28;20031;-74
2023/11/24 08:06:49;;;;;;;12.48;3.13;;;8.20;81.70;;;;;;5017994;28;20042;-74
2023/11/24 08:09:16;;;;;;;18.17;3.42;;;8.20;81.50;;;;;;5022065;28;20037;-73
2023/11/24 08:11:42;;;;;;;14.30;3.85;;;8.20;81.40;;;;;;5019234;28;20033;-78
2023/11/24 08:14:09;;;;;;;16.10;3.20;;;8.20;81.30;;;;;;5020519;28;20029;-73
2023/11/24 08:16:35;;;;;;;15.70;3.13;;;8.20;81.40;;;;;;5018319;28;20128;-72
2023/11/24 08:19:02;;;;;;;11.00;2.92;;;8.20;81.40;;;;;;5025288;28;20112;-74
2023/11/24 08:21:28;;;;;;;14.50;3.03;;;8.20;81.10;;;;;;5018047;28;20037;-73
2023/11/24 08:23:54;;;;;;;17.88;3.20;;;8.30;81.10;;;;;;5022912;28;20028;-73
2023/11/24 08:26:23;;;;;;;13.32;3.40;;;8.30;80.90;;;;;;5020125;28;20029;-74
2023/11/24 08:28:48;;;;;;;14.65;3.35;;;8.30;80.90;;;;;;5020598;28;20490;-74
2023/11/24 08:31:16;;;;;;;15.52;3.33;;;8.30;80.80;;;;;;5019806;28;20041;-73
2023/11/24 08:33:42;;;;;;;12.13;2.83;;;8.40;80.70;;;;;;5019524;28;20037;-73
2023/11/24 08:36:09;;;;;;;12.63;3.70;;;8.40;80.20;;;;;;5001253;28;20380;-74
2023/11/24 08:38:35;;;;;;;12.90;2.72;;;8.50;80.00;;;;;;5008294;28;20486;-73
2023/11/24 08:41:00;;;;;;;13.95;3.47;;;8.60;79.10;;;;;;5010601;28;20037;-73
2023/11/24 08:43:26;;;;;;;10.98;3.03;;;8.60;79.00;;;;;;5012165;28;20061;-73
2023/11/24 08:45:52;;;;;;;13.90;2.60;;;8.60;77.80;;;;;;5017120;28;20033;-72
2023/11/24 08:48:17;;;;;;;12.80;3.08;;;8.70;76.80;;;;;;5012172;28;20694;-73
2023/11/24 08:50:43;;;;;;;10.85;2.50;;;8.70;77.00;;;;;;5014397;28;20034;-73
2023/11/24 08:53:09;;;;;;;13.38;2.92;;;8.60;77.10;;;;;;5017275;28;20022;-73
2023/11/24 08:55:35;;;;;;;11.95;2.65;;;8.70;76.80;;;;;;5014486;28;20116;-72
2023/11/24 08:58:00;;;;;;;12.70;2.55;;;8.80;76.70;;;;;;5015201;28;20513;-73
2023/11/24 09:00:30;;;;;;;10.75;2.10;;;8.80;77.00;;;;;;5018354;28;20187;-73
2023/11/24 09:02:57;;;;;;;9.05;3.20;;;8.90;76.20;;;;;;5013292;28;20042;-73
2023/11/24 09:05:24;;;;;;;10.73;2.58;;;8.90;75.30;;;;;;5016934;28;20121;-75
2023/11/24 09:07:49;;;;;;;9.82;2.40;;;8.90;74.40;;;;;;5015242;28;20037;-74
2023/11/24 09:10:16;;;;;;;10.25;2.45;;;9.00;73.80;;;;;;5014733;28;20390;-74
2023/11/24 09:12:42;;;;;;;11.23;2.30;;;9.10;73.40;;;;;;5010364;28;20041;-75
2023/11/24 09:15:08;;;;;;;9.07;2.30;;;9.00;72.90;;;;;;5016638;28;20030;-74
2023/11/24 09:17:36;;;;;;;10.85;2.45;;;9.10;72.60;;;;;;5016014;28;20033;-73
2023/11/24 09:20:05;;;;;;;11.95;2.08;;;9.30;73.00;;;;;;5014565;28;20052;-72
2023/11/24 09:22:31;;;;;;;10.13;2.67;;;9.50;71.80;;;;;;5013546;28;20162;-73
2023/11/24 09:25:00;;;;;;;7.72;2.20;;;9.50;70.80;;;;;;5020819;28;20086;-72
2023/11/24 09:27:25;;;;;;;6.50;2.13;;;9.50;70.50;;;;;;5018372;28;20026;-75
2023/11/24 09:29:51;;;;;;;10.93;2.38;;;9.30;70.30;;;;;;5018101;28;20053;-72
2023/11/24 09:32:16;;;;;;;11.43;2.42;;;9.30;71.50;;;;;;5010871;28;20041;-71
2023/11/24 09:34:44;;;;;;;10.40;2.30;;;9.30;72.10;;;;;;5014033;28;20029;-73
2023/11/24 09:37:09;;;;;;;9.70;2.40;;;9.20;71.00;;;;;;5012972;28;21208;-72
2023/11/24 09:39:35;;;;;;;10.77;2.05;;;9.30;70.60;;;;;;5016492;28;20514;-72
2023/11/24 09:42:03;;;;;;;8.68;2.25;;;9.10;69.80;;;;;;5011867;28;20061;-74
2023/11/24 09:44:29;;;;;;;12.45;2.42;;;9.20;71.50;;;;;;5016214;28;20113;-75
2023/11/24 09:46:57;;;;;;;11.82;2.33;;;9.20;71.80;;;;;;5014540;28;20099;-73
2023/11/24 09:49:24;;;;;;;10.25;2.60;;;9.10;72.20;;;;;;5015095;28;20029;-72
2023/11/24 09:51:50;;;;;;;9.23;2.17;;;9.10;73.20;;;;;;5014457;28;20148;-72
2023/11/24 09:54:17;;;;;;;10.02;2.80;;;9.10;73.90;;;;;;5013558;28;20203;-72
2023/11/24 09:56:43;;;;;;;10.20;2.42;;;8.90;73.10;;;;;;5013388;28;20037;-72
2023/11/24 09:59:09;;;;;;;14.77;2.40;;;8.90;73.70;;;;;;5019199;28;20017;-74
2023/11/24 10:01:36;;;;;;;9.93;2.58;;;8.80;72.50;;;;;;5016203;28;20033;-74
2023/11/24 10:04:03;;;;;;;12.15;2.60;;;8.90;73.60;;;;;;5022492;28;20541;-72
2023/11/24 10:06:29;;;;;;;10.50;2.65;;;9.00;73.90;;;;;;5018907;28;20068;-72
2023/11/24 10:08:57;;;;;;;9.68;2.20;;;9.00;73.90;;;;;;5022880;28;20041;-73
2023/11/24 10:11:28;;;;;;;10.73;2.15;;;9.00;73.40;;;;;;5016700;28;20412;-72
2023/11/24 10:13:54;;;;;;;11.20;2.95;;;9.10;73.60;;;;;;5020282;28;20061;-73
2023/11/24 10:16:22;;;;;;;11.45;2.17;;;9.10;74.50;;;;;;5013582;28;20076;-73
2023/11/24 10:18:47;;;;;;;13.82;3.03;;;9.10;74.90;;;;;;5020772;28;20033;-73
2023/11/24 10:21:13;;;;;;;12.73;3.20;;;8.90;76.20;;;;;;5017997;28;20375;-73
2023/11/24 10:23:39;;;;;;;8.35;2.63;;;8.60;81.20;;;;;;5026050;28;20041;-74
2023/11/24 10:26:16;;;;;;;11.38;2.72;;;7.90;85.90;;;;;;5019691;28;20034;-74
2023/11/24 10:28:45;;;;;;;11.50;2.58;;;7.70;87.80;;;;;;5021226;28;20034;-73
2023/11/24 10:31:14;;;;;;;13.52;3.03;;;7.60;88.80;;;;;;5021473;28;20034;-73
2023/11/24 10:33:40;;;;;;;9.45;2.72;;;7.50;89.40;;;;;;5024540;28;20040;-74
2023/11/24 10:36:07;;;;;;;11.57;2.55;;;7.50;89.90;;;;;;5025565;28;20125;-74
2023/11/24 10:38:33;;;;;;;11.38;2.55;;;7.50;90.00;;;;;;5020141;28;20482;-73
2023/11/24 10:41:00;;;;;;;14.75;3.35;;;7.60;89.80;;;;;;5037313;28;20049;-74
2023/11/24 10:43:34;;;;;;;12.18;2.75;;;7.60;89.70;;;;;;5023152;28;20635;-74
2023/11/24 10:46:03;;;;;;;12.05;2.97;;;7.60;89.30;;;;;;5022003;28;20061;-75
2023/11/24 10:49:01;;;;;;;14.43;3.58;;;7.60;88.90;;;;;;5023956;28;20048;-75
2023/11/24 10:51:27;;;;;;;13.05;3.10;;;7.70;89.20;;;;;;5020419;28;20041;-73
2023/11/24 10:53:56;;;;;;;17.88;3.95;;;7.80;89.30;;;;;;5020773;28;20029;-73
2023/11/24 10:56:23;;;;;;;15.57;6.28;;;7.80;88.80;;;;;;5025217;28;20525;-73
2023/11/24 10:58:56;;;;;;;16.20;3.22;;;7.90;88.60;;;;;;5023920;28;20033;-74
2023/11/24 11:01:24;;;;;;;7.07;2.42;;;7.80;88.80;;;;;;5034605;28;20038;-73
2023/11/24 11:03:58;;;;;;;5.28;1.80;;;7.40;89.70;;;;;;5030251;28;20640;-73
2023/11/24 11:06:38;;;;;;;8.45;1.88;;;7.10;91.10;;;;;;5019478;28;20048;-72
2023/11/24 11:09:19;;;;;;;9.18;1.90;;;7.00;91.70;;;;;;5024218;28;20091;-74
2023/11/24 11:12:13;;;;;;;8.75;2.17;;;7.10;91.90;;;;;;5019988;28;20040;-73
2023/11/24 11:14:42;;;;;;;9.38;2.60;;;7.10;91.90;;;;;;5022995;28;20112;-73
2023/11/24 11:17:15;;;;;;;11.45;2.53;;;7.10;92.20;;;;;;5019916;28;20044;-72
2023/11/24 11:20:12;;;;;;;10.73;3.28;;;7.10;92.60;;;;;;5021875;28;20183;-73
2023/11/24 11:22:39;;;;;;;8.23;3.10;;;7.10;92.90;;;;;;5018177;28;20777;-72
2023/11/24 11:25:14;;;;;;;9.38;2.33;;;7.10;93.40;;;;;;5023683;28;20147;-74
2023/11/24 11:27:43;;;;;;;11.38;2.30;;;7.10;93.40;;;;;;5021511;28;20476;-76
2023/11/24 11:30:19;;;;;;;8.10;2.92;;;7.10;93.50;;;;;;5024531;28;20421;-74
2023/11/24 11:32:44;;;;;;;11.15;2.60;;;7.00;93.70;;;;;;5016014;28;20029;-74
2023/11/24 11:35:10;;;;;;;11.05;2.88;;;7.00;93.70;;;;;;5022804;28;20339;-72
2023/11/24 11:37:36;;;;;;;8.23;1.90;;;7.10;93.70;;;;;;5038105;28;20038;-72
2023/11/24 11:40:14;;;;;;;8.65;2.00;;;7.10;93.20;;;;;;5023022;28;20061;-74
2023/11/24 11:42:58;;;;;;;10.20;2.30;;;7.10;93.10;;;;;;5020017;28;20699;-73
2023/11/24 11:45:30;;;;;;;9.38;2.80;;;7.20;93.20;;;;;;5020676;28;20186;-74
2023/11/24 11:48:02;;;;;;;8.35;2.38;;;7.20;93.00;;;;;;5020980;28;20065;-73
2023/11/24 11:50:31;;;;;;;10.02;3.03;;;7.30;92.70;;;;;;5021845;28;20371;-73
2023/11/24 11:53:00;;;;;;;10.73;2.05;;;7.40;92.60;;;;;;5019508;28;20467;-73
2023/11/24 11:55:28;;;;;;;10.98;3.17;;;7.40;92.40;;;;;;5022502;28;20061;-74
2023/11/24 11:57:55;;;;;;;11.57;2.50;;;7.40;92.10;;;;;;5022205;28;20429;-73
2023/11/24 12:00:30;;;;;;;10.93;2.50;;;7.40;92.00;;;;;;5024044;28;20068;-74
2023/11/24 12:02:57;;;;;;;13.57;2.92;;;7.50;92.00;;;;;;5022037;28;20438;-74
2023/11/24 12:05:23;;;;;;;15.45;3.55;;;7.50;91.80;;;;;;5027367;28;20038;-72
2023/11/24 12:07:49;;;;;;;9.02;2.88;;;7.60;91.90;;;;;;5022402;28;20354;-73
2023/11/24 12:10:15;;;;;;;10.05;2.63;;;7.60;91.20;;;;;;5023687;28;20033;-73
2023/11/24 12:12:45;;;;;;;5.88;1.77;;;7.70;91.30;;;;;;5021972;28;20104;-73
2023/11/24 12:15:17;;;;;;;6.18;2.30;;;7.40;90.20;;;;;;5023290;28;20040;-73
2023/11/24 12:17:46;;;;;;;4.28;1.83;;;7.20;91.00;;;;;;5018940;28;20068;-74
2023/11/24 12:20:14;;;;;;;5.75;1.73;;;7.10;91.30;;;;;;5020778;28;20094;-73
2023/11/24 12:22:42;;;;;;;11.25;2.53;;;7.10;91.00;;;;;;5023983;28;20053;-74
2023/11/24 12:25:10;;;;;;;10.82;2.47;;;7.30;90.90;;;;;;5019285;28;20100;-73
2023/11/24 12:27:37;;;;;;;8.63;2.42;;;7.40;90.40;;;;;;5020456;28;20470;-73
2023/11/24 12:30:04;;;;;;;13.00;2.65;;;7.40;90.60;;;;;;5022591;28;20119;-75
2023/11/24 12:32:33;;;;;;;7.88;2.00;;;7.30;90.50;;;;;;5020965;28;20120;-72
2023/11/24 12:35:03;;;;;;;10.98;2.25;;;7.20;90.60;;;;;;5023822;28;20989;-72
2023/11/24 12:37:29;;;;;;;9.35;2.17;;;7.10;91.20;;;;;;5020322;28;20394;-73
2023/11/24 12:39:56;;;;;;;8.77;1.83;;;7.00;90.90;;;;;;5011688;28;20483;-74
2023/11/24 12:42:22;;;;;;;8.38;2.28;;;6.90;90.10;;;;;;5010855;28;20030;-74
2023/11/24 12:44:50;;;;;;;9.57;1.90;;;6.80;90.10;;;;;;5013667;28;20322;-74